KTYS/TYS METAR and TAF weather

Enter ICAO airport designator
Station Type Date Time Source
KTYS METAR 2020/04/06 09:53 UTC NOAA

KTYS 060953Z 00000KT 10SM CLR 13/09 A3006 RMK AO2 SLP171 T01330089 $


Station Type Date Time Source
KTYS Decoded METAR 2020/04/06 09:53 UTC NOAA

MCGHEE TYSON AIRPORT, TN, United States (KTYS) 35-49N 083-59W 302M
Apr 06, 2020 - 05:53 AM EDT / 2020.04.06 0953 UTC
Wind: Calm:0
Visibility: 10 mile(s):0
Sky conditions: clear
Temperature: 55.9 F (13.3 C)
Dew Point: 48.0 F (8.9 C)
Relative Humidity: 74%
Pressure (altimeter): 30.06 in. Hg (1017 hPa)
ob: KTYS 060953Z 00000KT 10SM CLR 13/09 A3006 RMK AO2 SLP171 T01330089
cycle: 10

Station Type Date Time Source
KTYS TAF 2020/04/06 06:22 UTC NOAA

TAF KTYS 060520Z 0606/0706 00000KT P6SM FEW200
FM061900 26007KT P6SM SCT250

Example: see airport list